sensor_id;sensor_type;location;lat;lon;timestamp;pressure;altitude;pressure_sealevel;temperature;humidity
63652;BME280;49801;37.536;-122.304;2022-10-16T00:00:04;101156.25;;;17.31;68.29
63652;BME280;49801;37.536;-122.304;2022-10-16T00:00:30;101157.06;;;17.25;68.59
63652;BME280;49801;37.536;-122.304;2022-10-16T00:00:56;101150.13;;;17.29;68.60
63652;BME280;49801;37.536;-122.304;2022-10-16T00:01:23;101157.50;;;17.35;68.61
63652;BME280;49801;37.536;-122.304;2022-10-16T00:01:49;101149.09;;;17.37;68.49
63652;BME280;49801;37.536;-122.304;2022-10-16T00:02:15;101140.47;;;17.33;68.53
63652;BME280;49801;37.536;-122.304;2022-10-16T00:02:40;101150.34;;;17.34;68.60
63652;BME280;49801;37.536;-122.304;2022-10-16T00:03:07;101150.78;;;17.31;68.59
63652;BME280;49801;37.536;-122.304;2022-10-16T00:03:32;101148.66;;;17.33;68.74
63652;BME280;49801;37.536;-122.304;2022-10-16T00:03:59;101145.53;;;17.36;68.67
63652;BME280;49801;37.536;-122.304;2022-10-16T00:04:25;101152.66;;;17.37;68.60
63652;BME280;49801;37.536;-122.304;2022-10-16T00:04:51;101153.28;;;17.39;68.49
63652;BME280;49801;37.536;-122.304;2022-10-16T00:05:16;101153.28;;;17.39;68.62
63652;BME280;49801;37.536;-122.304;2022-10-16T00:05:43;101155.00;;;17.40;68.48
63652;BME280;49801;37.536;-122.304;2022-10-16T00:06:09;101154.34;;;17.38;68.61
63652;BME280;49801;37.536;-122.304;2022-10-16T00:06:35;101143.19;;;17.33;68.58
63652;BME280;49801;37.536;-122.304;2022-10-16T00:07:00;101151.19;;;17.28;68.75
63652;BME280;49801;37.536;-122.304;2022-10-16T00:07:26;101147.81;;;17.26;68.94
63652;BME280;49801;37.536;-122.304;2022-10-16T00:07:52;101145.72;;;17.28;68.62
63652;BME280;49801;37.536;-122.304;2022-10-16T00:08:18;101157.88;;;17.19;69.22
63652;BME280;49801;37.536;-122.304;2022-10-16T00:08:44;101145.66;;;17.15;69.14
63652;BME280;49801;37.536;-122.304;2022-10-16T00:09:10;101149.66;;;17.19;69.11
63652;BME280;49801;37.536;-122.304;2022-10-16T00:09:36;101140.81;;;17.17;69.39
63652;BME280;49801;37.536;-122.304;2022-10-16T00:10:01;101146.94;;;17.19;69.33
63652;BME280;49801;37.536;-122.304;2022-10-16T00:10:28;101141.91;;;17.16;69.36
63652;BME280;49801;37.536;-122.304;2022-10-16T00:11:04;101151.75;;;17.10;69.46
63652;BME280;49801;37.536;-122.304;2022-10-16T00:11:32;101143.13;;;17.06;69.49
63652;BME280;49801;37.536;-122.304;2022-10-16T00:11:58;101142.69;;;17.03;69.62
63652;BME280;49801;37.536;-122.304;2022-10-16T00:12:24;101146.91;;;17.05;69.53
63652;BME280;49801;37.536;-122.304;2022-10-16T00:12:50;101149.44;;;17.07;69.49
63652;BME280;49801;37.536;-122.304;2022-10-16T00:13:16;101152.38;;;17.05;69.47
63652;BME280;49801;37.536;-122.304;2022-10-16T00:13:44;101147.31;;;17.02;69.64
63652;BME280;49801;37.536;-122.304;2022-10-16T00:14:11;101147.69;;;16.93;70.00
63652;BME280;49801;37.536;-122.304;2022-10-16T00:14:37;101144.75;;;16.94;70.02
63652;BME280;49801;37.536;-122.304;2022-10-16T00:15:06;101145.16;;;16.91;70.23
63652;BME280;49801;37.536;-122.304;2022-10-16T00:15:36;101149.38;;;16.87;70.25
63652;BME280;49801;37.536;-122.304;2022-10-16T00:16:02;101140.09;;;16.88;70.29
63652;BME280;49801;37.536;-122.304;2022-10-16T00:16:28;101140.09;;;16.88;70.26
63652;BME280;49801;37.536;-122.304;2022-10-16T00:16:54;101143.44;;;16.83;70.45
63652;BME280;49801;37.536;-122.304;2022-10-16T00:17:20;101143.91;;;16.87;70.18
63652;BME280;49801;37.536;-122.304;2022-10-16T00:17:46;101145.56;;;16.88;70.28
63652;BME280;49801;37.536;-122.304;2022-10-16T00:18:12;101148.91;;;16.83;70.60
63652;BME280;49801;37.536;-122.304;2022-10-16T00:18:39;101140.69;;;16.83;70.68
63652;BME280;49801;37.536;-122.304;2022-10-16T00:19:06;101140.28;;;16.80;70.62
63652;BME280;49801;37.536;-122.304;2022-10-16T00:19:32;101146.53;;;16.74;71.07
63652;BME280;49801;37.536;-122.304;2022-10-16T00:19:57;101142.78;;;16.75;71.01
63652;BME280;49801;37.536;-122.304;2022-10-16T00:20:23;101143.41;;;16.77;70.97
63652;BME280;49801;37.536;-122.304;2022-10-16T00:20:49;101146.78;;;16.79;71.08
63652;BME280;49801;37.536;-122.304;2022-10-16T00:21:16;101150.34;;;16.79;71.03
63652;BME280;49801;37.536;-122.304;2022-10-16T00:21:42;101137.75;;;16.78;70.95
63652;BME280;49801;37.536;-122.304;2022-10-16T00:22:08;101144.63;;;16.74;71.07
63652;BME280;49801;37.536;-122.304;2022-10-16T00:22:33;101137.94;;;16.77;71.04
63652;BME280;49801;37.536;-122.304;2022-10-16T00:22:59;101138.56;;;16.79;71.07
63652;BME280;49801;37.536;-122.304;2022-10-16T00:23:25;101141.94;;;16.81;71.04
63652;BME280;49801;37.536;-122.304;2022-10-16T00:23:52;101143.41;;;16.77;70.95
63652;BME280;49801;37.536;-122.304;2022-10-16T00:24:17;101140.03;;;16.75;71.01
63652;BME280;49801;37.536;-122.304;2022-10-16T00:24:43;101148.88;;;16.77;70.98
63652;BME280;49801;37.536;-122.304;2022-10-16T00:25:09;101137.94;;;16.77;70.96
63652;BME280;49801;37.536;-122.304;2022-10-16T00:25:35;101143.81;;;16.74;71.12
63652;BME280;49801;37.536;-122.304;2022-10-16T00:26:02;101144.22;;;16.71;71.04
63652;BME280;49801;37.536;-122.304;2022-10-16T00:26:29;101149.28;;;16.74;71.02
63652;BME280;49801;37.536;-122.304;2022-10-16T00:26:55;101150.97;;;16.75;70.91
63652;BME280;49801;37.536;-122.304;2022-10-16T00:27:21;101153.25;;;16.64;71.18
63652;BME280;49801;37.536;-122.304;2022-10-16T00:27:47;101149.88;;;16.62;71.23
63652;BME280;49801;37.536;-122.304;2022-10-16T00:28:12;101147.13;;;16.62;71.26
63652;BME280;49801;37.536;-122.304;2022-10-16T00:28:38;101150.50;;;16.64;71.12
63652;BME280;49801;37.536;-122.304;2022-10-16T00:29:04;101150.50;;;16.64;71.01
63652;BME280;49801;37.536;-122.304;2022-10-16T00:29:30;101148.81;;;16.63;71.09
63652;BME280;49801;37.536;-122.304;2022-10-16T00:29:56;101152.19;;;16.65;70.93
63652;BME280;49801;37.536;-122.304;2022-10-16T00:30:22;101147.78;;;16.64;70.97
63652;BME280;49801;37.536;-122.304;2022-10-16T00:30:48;101148.56;;;16.58;70.97
63652;BME280;49801;37.536;-122.304;2022-10-16T00:31:14;101154.03;;;16.58;70.95
63652;BME280;49801;37.536;-122.304;2022-10-16T00:31:40;101160.56;;;16.57;71.05
63652;BME280;49801;37.536;-122.304;2022-10-16T00:32:06;101149.63;;;16.57;70.95
63652;BME280;49801;37.536;-122.304;2022-10-16T00:32:32;101154.25;;;16.57;71.03
63652;BME280;49801;37.536;-122.304;2022-10-16T00:32:57;101160.56;;;16.57;70.85
63652;BME280;49801;37.536;-122.304;2022-10-16T00:33:23;101147.94;;;16.56;70.89
63652;BME280;49801;37.536;-122.304;2022-10-16T00:33:49;101153.41;;;16.56;70.94
63652;BME280;49801;37.536;-122.304;2022-10-16T00:34:15;101163.25;;;16.50;71.07
63652;BME280;49801;37.536;-122.304;2022-10-16T00:34:41;101158.00;;;16.49;70.96
63652;BME280;49801;37.536;-122.304;2022-10-16T00:35:07;101160.72;;;16.49;71.09
63652;BME280;49801;37.536;-122.304;2022-10-16T00:35:33;101149.59;;;16.50;71.06
63652;BME280;49801;37.536;-122.304;2022-10-16T00:35:59;101153.75;;;16.46;71.04
63652;BME280;49801;37.536;-122.304;2022-10-16T00:36:25;101153.13;;;16.44;71.23
63652;BME280;49801;37.536;-122.304;2022-10-16T00:36:51;101159.22;;;16.46;71.17
63652;BME280;49801;37.536;-122.304;2022-10-16T00:37:16;101160.50;;;16.44;71.30
63652;BME280;49801;37.536;-122.304;2022-10-16T00:37:42;101156.44;;;16.40;71.50
63652;BME280;49801;37.536;-122.304;2022-10-16T00:38:08;101162.13;;;16.38;71.56
63652;BME280;49801;37.536;-122.304;2022-10-16T00:38:34;101156.66;;;16.38;71.47
63652;BME280;49801;37.536;-122.304;2022-10-16T00:39:00;101154.53;;;16.34;71.86
63652;BME280;49801;37.536;-122.304;2022-10-16T00:39:26;101154.53;;;16.34;71.77
63652;BME280;49801;37.536;-122.304;2022-10-16T00:39:52;101154.53;;;16.34;71.91
63652;BME280;49801;37.536;-122.304;2022-10-16T00:40:17;101149.06;;;16.34;71.96
63652;BME280;49801;37.536;-122.304;2022-10-16T00:40:43;101154.53;;;16.34;71.86
63652;BME280;49801;37.536;-122.304;2022-10-16T00:41:10;101148.63;;;16.30;72.15
63652;BME280;49801;37.536;-122.304;2022-10-16T00:41:37;101154.94;;;16.30;71.95
63652;BME280;49801;37.536;-122.304;2022-10-16T00:42:02;101158.09;;;16.34;71.82
63652;BME280;49801;37.536;-122.304;2022-10-16T00:42:28;101158.31;;;16.33;72.15
63652;BME280;49801;37.536;-122.304;2022-10-16T00:42:54;101160.00;;;16.34;71.94
63652;BME280;49801;37.536;-122.304;2022-10-16T00:44:40;101159.97;;;16.27;72.28
63652;BME280;49801;37.536;-122.304;2022-10-16T00:44:54;101162.88;;;16.25;72.37
63652;BME280;49801;37.536;-122.304;2022-10-16T00:45:23;101159.97;;;16.27;72.50
63652;BME280;49801;37.536;-122.304;2022-10-16T00:45:49;101160.59;;;16.29;72.34
63652;BME280;49801;37.536;-122.304;2022-10-16T00:46:19;101163.78;;;16.33;72.17
63652;BME280;49801;37.536;-122.304;2022-10-16T00:46:45;101168.84;;;16.36;72.07
63652;BME280;49801;37.536;-122.304;2022-10-16T00:47:13;101169.88;;;16.35;72.13
63652;BME280;49801;37.536;-122.304;2022-10-16T00:47:42;101157.03;;;16.28;72.38
63652;BME280;49801;37.536;-122.304;2022-10-16T00:48:10;101162.50;;;16.28;72.59
63652;BME280;49801;37.536;-122.304;2022-10-16T00:48:38;101172.56;;;16.28;72.69
63652;BME280;49801;37.536;-122.304;2022-10-16T00:49:08;101164.59;;;16.26;72.62
63652;BME280;49801;37.536;-122.304;2022-10-16T00:49:34;101170.06;;;16.26;72.76
63652;BME280;49801;37.536;-122.304;2022-10-16T00:50:03;101169.59;;;16.23;72.90
63652;BME280;49801;37.536;-122.304;2022-10-16T00:50:32;101170.44;;;16.23;72.93
63652;BME280;49801;37.536;-122.304;2022-10-16T00:50:58;101172.13;;;16.24;72.89
63652;BME280;49801;37.536;-122.304;2022-10-16T00:51:32;101164.59;;;16.26;73.05
63652;BME280;49801;37.536;-122.304;2022-10-16T00:51:58;101171.69;;;16.21;73.04
63652;BME280;49801;37.536;-122.304;2022-10-16T00:52:24;101168.75;;;16.22;72.92
63652;BME280;49801;37.536;-122.304;2022-10-16T00:52:50;101169.38;;;16.24;73.13
63652;BME280;49801;37.536;-122.304;2022-10-16T00:53:16;101170.84;;;16.20;73.19
63652;BME280;49801;37.536;-122.304;2022-10-16T00:53:42;101165.38;;;16.20;73.23
63652;BME280;49801;37.536;-122.304;2022-10-16T00:54:10;101167.47;;;16.18;73.19
63652;BME280;49801;37.536;-122.304;2022-10-16T00:54:37;101169.13;;;16.19;73.12
63652;BME280;49801;37.536;-122.304;2022-10-16T00:55:03;101169.56;;;16.16;73.31
63652;BME280;49801;37.536;-122.304;2022-10-16T00:55:30;101165.97;;;16.16;73.36
63652;BME280;49801;37.536;-122.304;2022-10-16T00:55:56;101167.47;;;16.18;73.32
63652;BME280;49801;37.536;-122.304;2022-10-16T00:56:21;101169.81;;;16.21;73.28
63652;BME280;49801;37.536;-122.304;2022-10-16T00:56:47;101169.59;;;16.23;73.19
63652;BME280;49801;37.536;-122.304;2022-10-16T00:57:13;101164.97;;;16.23;73.06
63652;BME280;49801;37.536;-122.304;2022-10-16T00:57:39;101168.31;;;16.19;73.37
63652;BME280;49801;37.536;-122.304;2022-10-16T00:58:05;101162.00;;;16.18;73.45
63652;BME280;49801;37.536;-122.304;2022-10-16T00:58:31;101159.47;;;16.17;73.39
63652;BME280;49801;37.536;-122.304;2022-10-16T00:58:57;101167.03;;;16.15;73.60
63652;BME280;49801;37.536;-122.304;2022-10-16T00:59:27;101162.78;;;16.12;73.64
63652;BME280;49801;37.536;-122.304;2022-10-16T00:59:53;101169.31;;;16.11;73.85
63652;BME280;49801;37.536;-122.304;2022-10-16T01:00:24;101166.97;;;16.08;74.01
63652;BME280;49801;37.536;-122.304;2022-10-16T01:00:50;101158.13;;;16.06;74.04
63652;BME280;49801;37.536;-122.304;2022-10-16T01:01:16;101160.19;;;16.04;74.29
63652;BME280;49801;37.536;-122.304;2022-10-16T01:01:41;101170.50;;;16.02;74.47
63652;BME280;49801;37.536;-122.304;2022-10-16T01:02:09;101168.81;;;16.01;74.68
63652;BME280;49801;37.536;-122.304;2022-10-16T01:02:35;101171.56;;;16.01;74.68
63652;BME280;49801;37.536;-122.304;2022-10-16T01:03:01;101171.56;;;16.01;74.73
63652;BME280;49801;37.536;-122.304;2022-10-16T01:03:29;101164.00;;;16.03;74.66
63652;BME280;49801;37.536;-122.304;2022-10-16T01:03:56;101165.66;;;16.04;74.47
63652;BME280;49801;37.536;-122.304;2022-10-16T01:04:22;101176.59;;;16.04;74.49
63652;BME280;49801;37.536;-122.304;2022-10-16T01:04:52;101176.59;;;16.04;74.44
63652;BME280;49801;37.536;-122.304;2022-10-16T01:05:19;101172.19;;;16.03;74.63
63652;BME280;49801;37.536;-122.304;2022-10-16T01:05:48;101175.31;;;16.00;74.64
63652;BME280;49801;37.536;-122.304;2022-10-16T01:06:31;101169.41;;;15.96;74.85
63652;BME280;49801;37.536;-122.304;2022-10-16T01:07:47;101179.88;;;15.92;75.21
63652;BME280;49801;37.536;-122.304;2022-10-16T01:08:17;101182.41;;;15.94;75.14
63652;BME280;49801;37.536;-122.304;2022-10-16T01:09:08;101172.31;;;15.94;75.15
63652;BME280;49801;37.536;-122.304;2022-10-16T01:11:22;101177.16;;;15.92;75.16
63652;BME280;49801;37.536;-122.304;2022-10-16T01:12:43;101174.81;;;15.89;75.39
63652;BME280;49801;37.536;-122.304;2022-10-16T01:13:18;101184.03;;;15.88;75.35
63652;BME280;49801;37.536;-122.304;2022-10-16T01:13:48;101178.56;;;15.88;75.35
63652;BME280;49801;37.536;-122.304;2022-10-16T01:14:21;101174.81;;;15.89;75.23
63652;BME280;49801;37.536;-122.304;2022-10-16T01:14:54;101180.25;;;15.89;75.22
63652;BME280;49801;37.536;-122.304;2022-10-16T01:17:00;101176.00;;;15.80;75.57
63652;BME280;49801;37.536;-122.304;2022-10-16T01:17:31;101177.41;;;15.76;75.93
63652;BME280;49801;37.536;-122.304;2022-10-16T01:18:01;101181.38;;;15.73;75.79
63652;BME280;49801;37.536;-122.304;2022-10-16T01:18:37;101179.31;;;15.75;75.80
63652;BME280;49801;37.536;-122.304;2022-10-16T01:19:17;101180.16;;;15.76;75.86
63652;BME280;49801;37.536;-122.304;2022-10-16T01:20:44;101184.84;;;15.82;75.45
63652;BME280;49801;37.536;-122.304;2022-10-16T01:21:18;101183.13;;;15.81;75.35
63652;BME280;49801;37.536;-122.304;2022-10-16T01:21:47;101183.56;;;15.78;75.37
63652;BME280;49801;37.536;-122.304;2022-10-16T01:22:15;101175.56;;;15.77;75.55
63652;BME280;49801;37.536;-122.304;2022-10-16T01:24:40;101180.91;;;15.70;75.62
63652;BME280;49801;37.536;-122.304;2022-10-16T01:25:08;101177.13;;;15.71;75.74
63652;BME280;49801;37.536;-122.304;2022-10-16T01:26:10;101178.81;;;15.72;75.58
63652;BME280;49801;37.536;-122.304;2022-10-16T01:27:14;101182.59;;;15.71;75.48
63652;BME280;49801;37.536;-122.304;2022-10-16T01:27:40;101181.94;;;15.69;75.66
63652;BME280;49801;37.536;-122.304;2022-10-16T01:28:08;101185.50;;;15.69;75.65
63652;BME280;49801;37.536;-122.304;2022-10-16T01:28:39;101177.53;;;15.68;75.71
63652;BME280;49801;37.536;-122.304;2022-10-16T01:30:41;101183.78;;;15.62;75.91
63652;BME280;49801;37.536;-122.304;2022-10-16T01:31:07;101182.75;;;15.63;75.83
63652;BME280;49801;37.536;-122.304;2022-10-16T01:31:36;101181.88;;;15.62;75.73
63652;BME280;49801;37.536;-122.304;2022-10-16T01:32:06;101181.69;;;15.64;75.53
63652;BME280;49801;37.536;-122.304;2022-10-16T01:33:40;101175.38;;;15.63;75.58
63652;BME280;49801;37.536;-122.304;2022-10-16T01:34:18;101180.84;;;15.63;75.67
63652;BME280;49801;37.536;-122.304;2022-10-16T01:34:47;101180.84;;;15.63;75.76
63652;BME280;49801;37.536;-122.304;2022-10-16T01:35:24;101181.69;;;15.64;75.65
63652;BME280;49801;37.536;-122.304;2022-10-16T01:35:52;101174.94;;;15.60;76.03
63652;BME280;49801;37.536;-122.304;2022-10-16T01:36:21;101177.84;;;15.58;76.00
63652;BME280;49801;37.536;-122.304;2022-10-16T01:36:52;101186.88;;;15.59;75.86
63652;BME280;49801;37.536;-122.304;2022-10-16T01:37:21;101178.69;;;15.59;75.93
63652;BME280;49801;37.536;-122.304;2022-10-16T01:38:26;101184.16;;;15.59;75.81
63652;BME280;49801;37.536;-122.304;2022-10-16T01:38:56;101189.16;;;15.55;76.25
63652;BME280;49801;37.536;-122.304;2022-10-16T01:39:35;101183.63;;;15.48;76.40
63652;BME280;49801;37.536;-122.304;2022-10-16T01:40:05;101176.09;;;15.50;76.29
63652;BME280;49801;37.536;-122.304;2022-10-16T01:40:32;101178.81;;;15.50;76.42
63652;BME280;49801;37.536;-122.304;2022-10-16T01:41:00;101185.59;;;15.54;76.06
63652;BME280;49801;37.536;-122.304;2022-10-16T01:41:32;101191.69;;;15.56;76.11
63652;BME280;49801;37.536;-122.304;2022-10-16T01:42:01;101178.81;;;15.50;76.27
63652;BME280;49801;37.536;-122.304;2022-10-16T01:42:31;101179.50;;;15.52;76.15
63652;BME280;49801;37.536;-122.304;2022-10-16T01:43:01;101177.78;;;15.51;76.22
63652;BME280;49801;37.536;-122.304;2022-10-16T01:43:30;101179.50;;;15.52;76.10
63652;BME280;49801;37.536;-122.304;2022-10-16T01:44:08;101188.72;;;15.51;76.29
63652;BME280;49801;37.536;-122.304;2022-10-16T01:44:36;101187.00;;;15.50;76.33
63652;BME280;49801;37.536;-122.304;2022-10-16T01:45:04;101185.34;;;15.49;76.33
63652;BME280;49801;37.536;-122.304;2022-10-16T01:45:33;101187.41;;;15.47;76.67
63652;BME280;49801;37.536;-122.304;2022-10-16T01:46:00;101181.09;;;15.47;76.56
63652;BME280;49801;37.536;-122.304;2022-10-16T01:46:26;101188.44;;;15.46;76.72
63652;BME280;49801;37.536;-122.304;2022-10-16T01:46:53;101191.19;;;15.46;76.85
63652;BME280;49801;37.536;-122.304;2022-10-16T01:47:21;101194.94;;;15.45;76.75
63652;BME280;49801;37.536;-122.304;2022-10-16T01:47:48;101189.47;;;15.45;76.88
63652;BME280;49801;37.536;-122.304;2022-10-16T01:48:17;101196.63;;;15.46;76.78
63652;BME280;49801;37.536;-122.304;2022-10-16T01:48:43;101195.59;;;15.47;76.64
63652;BME280;49801;37.536;-122.304;2022-10-16T01:49:09;101188.25;;;15.48;76.62
63652;BME280;49801;37.536;-122.304;2022-10-16T01:49:36;101190.78;;;15.49;76.64
63652;BME280;49801;37.536;-122.304;2022-10-16T01:50:04;101202.09;;;15.46;76.88
63652;BME280;49801;37.536;-122.304;2022-10-16T01:50:31;101203.78;;;15.47;76.84
63652;BME280;49801;37.536;-122.304;2022-10-16T01:51:06;101196.63;;;15.46;76.91
63652;BME280;49801;37.536;-122.304;2022-10-16T01:51:34;101199.56;;;15.45;76.80
63652;BME280;49801;37.536;-122.304;2022-10-16T01:52:02;101193.25;;;15.44;76.85
63652;BME280;49801;37.536;-122.304;2022-10-16T01:52:30;101193.25;;;15.44;77.04
63652;BME280;49801;37.536;-122.304;2022-10-16T01:52:58;101193.63;;;15.41;76.97
63652;BME280;49801;37.536;-122.304;2022-10-16T01:53:24;101191.94;;;15.40;77.11
63652;BME280;49801;37.536;-122.304;2022-10-16T01:53:52;101192.81;;;15.41;77.10
63652;BME280;49801;37.536;-122.304;2022-10-16T01:54:18;101196.19;;;15.43;77.14
63652;BME280;49801;37.536;-122.304;2022-10-16T01:54:46;101195.34;;;15.42;77.08
63652;BME280;49801;37.536;-122.304;2022-10-16T01:55:17;101199.75;;;15.43;77.22
63652;BME280;49801;37.536;-122.304;2022-10-16T01:55:44;101200.81;;;15.42;77.07
63652;BME280;49801;37.536;-122.304;2022-10-16T01:56:11;101199.09;;;15.41;77.27
63652;BME280;49801;37.536;-122.304;2022-10-16T01:56:37;101194.03;;;15.38;77.30
63652;BME280;49801;37.536;-122.304;2022-10-16T01:57:05;101195.72;;;15.39;77.35
63652;BME280;49801;37.536;-122.304;2022-10-16T01:57:31;101201.00;;;15.41;77.16
63652;BME280;49801;37.536;-122.304;2022-10-16T01:57:59;101193.63;;;15.41;77.07
63652;BME280;49801;37.536;-122.304;2022-10-16T01:58:26;101194.66;;;15.40;77.15
63652;BME280;49801;37.536;-122.304;2022-10-16T01:58:57;101200.13;;;15.40;77.07
63652;BME280;49801;37.536;-122.304;2022-10-16T01:59:26;101202.84;;;15.40;77.17
63652;BME280;49801;37.536;-122.304;2022-10-16T01:59:56;101197.41;;;15.40;77.11
63652;BME280;49801;37.536;-122.304;2022-10-16T02:00:24;101199.47;;;15.38;77.10
63652;BME280;49801;37.536;-122.304;2022-10-16T02:00:50;101196.75;;;15.38;77.10
63652;BME280;49801;37.536;-122.304;2022-10-16T02:01:18;101202.22;;;15.38;77.19
63652;BME280;49801;37.536;-122.304;2022-10-16T02:01:45;101198.66;;;15.37;77.06
63652;BME280;49801;37.536;-122.304;2022-10-16T02:02:13;101196.75;;;15.38;77.21
63652;BME280;49801;37.536;-122.304;2022-10-16T02:02:41;101198.84;;;15.36;77.19
63652;BME280;49801;37.536;-122.304;2022-10-16T02:03:08;101201.56;;;15.36;77.21
63652;BME280;49801;37.536;-122.304;2022-10-16T02:03:36;101205.31;;;15.35;77.01
63652;BME280;49801;37.536;-122.304;2022-10-16T02:04:10;101201.56;;;15.36;76.91
63652;BME280;49801;37.536;-122.304;2022-10-16T02:04:38;101196.09;;;15.36;76.79
63652;BME280;49801;37.536;-122.304;2022-10-16T02:05:08;101198.84;;;15.36;76.85
63652;BME280;49801;37.536;-122.304;2022-10-16T02:06:04;101195.66;;;15.32;76.73
63652;BME280;49801;37.536;-122.304;2022-10-16T02:06:30;101202.81;;;15.33;76.83
63652;BME280;49801;37.536;-122.304;2022-10-16T02:06:57;101201.94;;;15.33;76.84
63652;BME280;49801;37.536;-122.304;2022-10-16T02:07:23;101196.47;;;15.33;76.99
63652;BME280;49801;37.536;-122.304;2022-10-16T02:07:49;101191.91;;;15.33;76.77
63652;BME280;49801;37.536;-122.304;2022-10-16T02:08:15;101192.72;;;15.34;76.93
63652;BME280;49801;37.536;-122.304;2022-10-16T02:08:41;101201.56;;;15.36;76.76
63652;BME280;49801;37.536;-122.304;2022-10-16T02:09:09;101191.66;;;15.35;76.81
63652;BME280;49801;37.536;-122.304;2022-10-16T02:09:35;101200.91;;;15.34;76.74
63652;BME280;49801;37.536;-122.304;2022-10-16T02:10:01;101194.81;;;15.32;77.01
63652;BME280;49801;37.536;-122.304;2022-10-16T02:10:27;101195.66;;;15.32;76.88
63652;BME280;49801;37.536;-122.304;2022-10-16T02:10:56;101198.19;;;15.34;76.86
63652;BME280;49801;37.536;-122.304;2022-10-16T02:11:22;101194.41;;;15.35;76.77
63652;BME280;49801;37.536;-122.304;2022-10-16T02:11:48;101202.81;;;15.33;76.79
63652;BME280;49801;37.536;-122.304;2022-10-16T02:12:21;101208.47;;;15.32;76.90
63652;BME280;49801;37.536;-122.304;2022-10-16T02:12:54;101199.22;;;15.33;76.92
63652;BME280;49801;37.536;-122.304;2022-10-16T02:13:30;101205.72;;;15.32;76.88
63652;BME280;49801;37.536;-122.304;2022-10-16T02:14:01;101201.94;;;15.33;76.83
63652;BME280;49801;37.536;-122.304;2022-10-16T02:14:28;101202.81;;;15.33;76.77
63652;BME280;49801;37.536;-122.304;2022-10-16T02:14:54;101209.09;;;15.34;76.67
63652;BME280;49801;37.536;-122.304;2022-10-16T02:15:20;101203.66;;;15.34;76.56
63652;BME280;49801;37.536;-122.304;2022-10-16T02:15:45;101209.47;;;15.31;76.86
63652;BME280;49801;37.536;-122.304;2022-10-16T02:16:12;101198.56;;;15.31;77.04
63652;BME280;49801;37.536;-122.304;2022-10-16T02:16:45;101207.78;;;15.30;77.08
63652;BME280;49801;37.536;-122.304;2022-10-16T02:17:12;101205.66;;;15.25;77.45
63652;BME280;49801;37.536;-122.304;2022-10-16T02:17:38;101203.56;;;15.27;77.31
63652;BME280;49801;37.536;-122.304;2022-10-16T02:18:04;101215.31;;;15.28;77.42
63652;BME280;49801;37.536;-122.304;2022-10-16T02:18:30;101211.28;;;15.24;77.68
63652;BME280;49801;37.536;-122.304;2022-10-16T02:18:56;101206.66;;;15.24;77.42
63652;BME280;49801;37.536;-122.304;2022-10-16T02:19:22;101211.94;;;15.26;77.67
63652;BME280;49801;37.536;-122.304;2022-10-16T02:19:48;101212.31;;;15.23;77.69
63652;BME280;49801;37.536;-122.304;2022-10-16T02:20:15;101213.19;;;15.23;77.61
63652;BME280;49801;37.536;-122.304;2022-10-16T02:21:02;101214.66;;;15.26;77.58
63652;BME280;49801;37.536;-122.304;2022-10-16T02:22:00;101222.47;;;15.29;77.58
63652;BME280;49801;37.536;-122.304;2022-10-16T02:22:30;101220.59;;;15.29;77.62
63652;BME280;49801;37.536;-122.304;2022-10-16T02:22:57;101220.41;;;15.31;77.69
63652;BME280;49801;37.536;-122.304;2022-10-16T02:25:01;101222.09;;;15.32;77.61
63652;BME280;49801;37.536;-122.304;2022-10-16T02:25:31;101216.63;;;15.32;77.65
63652;BME280;49801;37.536;-122.304;2022-10-16T02:25:59;101221.22;;;15.31;77.63
63652;BME280;49801;37.536;-122.304;2022-10-16T02:26:28;101223.75;;;15.33;77.76
63652;BME280;49801;37.536;-122.304;2022-10-16T02:28:15;101222.47;;;15.29;77.88
63652;BME280;49801;37.536;-122.304;2022-10-16T02:28:45;101220.78;;;15.28;77.80
63652;BME280;49801;37.536;-122.304;2022-10-16T02:29:13;101225.84;;;15.31;77.77
63652;BME280;49801;37.536;-122.304;2022-10-16T02:29:42;101217.66;;;15.31;77.57
63652;BME280;49801;37.536;-122.304;2022-10-16T02:30:15;101218.69;;;15.30;77.81
63652;BME280;49801;37.536;-122.304;2022-10-16T02:30:45;101220.78;;;15.28;77.84
63652;BME280;49801;37.536;-122.304;2022-10-16T02:31:15;101217.22;;;15.27;77.90
63652;BME280;49801;37.536;-122.304;2022-10-16T02:31:43;101220.78;;;15.28;77.82
63652;BME280;49801;37.536;-122.304;2022-10-16T02:32:12;101222.47;;;15.29;77.92
63652;BME280;49801;37.536;-122.304;2022-10-16T02:32:39;101216.19;;;15.28;77.88
63652;BME280;49801;37.536;-122.304;2022-10-16T02:33:08;101217.84;;;15.29;77.72
63652;BME280;49801;37.536;-122.304;2022-10-16T02:33:34;101220.78;;;15.28;78.02
63652;BME280;49801;37.536;-122.304;2022-10-16T02:34:02;101219.09;;;15.27;77.91
63652;BME280;49801;37.536;-122.304;2022-10-16T02:34:30;101227.94;;;15.29;78.10
63652;BME280;49801;37.536;-122.304;2022-10-16T02:34:57;101212.41;;;15.29;78.01
63652;BME280;49801;37.536;-122.304;2022-10-16T02:35:25;101220.13;;;15.26;78.23
63652;BME280;49801;37.536;-122.304;2022-10-16T02:35:52;101214.03;;;15.24;78.36
63652;BME280;49801;37.536;-122.304;2022-10-16T02:36:19;101216.38;;;15.27;78.23
63652;BME280;49801;37.536;-122.304;2022-10-16T02:36:46;101215.69;;;15.25;78.29
63652;BME280;49801;37.536;-122.304;2022-10-16T02:37:12;101211.94;;;15.26;78.31